Time;durP1;ratioP1;P1;durP2;ratioP2;P2;SDS_P1;SDS_P2;PMS_P1;PMS_P2;Temp;Humidity;BMP_temperature;BMP_pressure;BME280_temperature;BME280_humidity;BME280_pressure;Samples;Min_cycle;Max_cycle;Signal;HPM_P1;HPM_P2
2021/06/05 00:01:22;;;;;;;0.53;0.50;;;19.20;99.90;;;;;;5056263;28;20201;-82
2021/06/05 00:03:51;;;;;;;0.47;0.47;;;19.20;99.90;;;;;;5056520;28;20181;-82
2021/06/05 00:06:18;;;;;;;0.40;0.40;;;19.20;99.90;;;;;;5058989;28;20212;-82
2021/06/05 00:08:45;;;;;;;4.80;0.83;;;19.20;99.90;;;;;;5061487;28;20277;-82
2021/06/05 00:11:11;;;;;;;0.33;0.33;;;19.20;99.90;;;;;;5057577;28;20186;-81
2021/06/05 00:13:46;;;;;;;0.20;0.20;;;19.10;99.90;;;;;;5057382;28;20182;-81
2021/06/05 00:16:19;;;;;;;0.20;0.20;;;19.10;99.90;;;;;;5056278;28;20201;-81
2021/06/05 00:18:45;;;;;;;0.30;0.30;;;19.10;99.90;;;;;;5045762;28;20206;-81
2021/06/05 00:21:12;;;;;;;0.20;0.20;;;19.00;99.90;;;;;;5055799;28;20201;-81
2021/06/05 00:23:37;;;;;;;0.87;0.33;;;19.00;99.90;;;;;;5051274;28;20316;-81
2021/06/05 00:26:05;;;;;;;0.57;0.57;;;19.00;99.90;;;;;;5054891;28;20267;-82
2021/06/05 00:28:31;;;;;;;0.27;0.27;;;18.90;99.90;;;;;;5053071;28;20189;-79
2021/06/05 00:30:58;;;;;;;0.73;0.50;;;18.90;99.90;;;;;;5035479;28;20215;-81
2021/06/05 00:33:24;;;;;;;0.30;0.30;;;18.80;99.90;;;;;;5036606;28;20190;-81
2021/06/05 00:35:50;;;;;;;0.40;0.40;;;18.80;99.90;;;;;;5055086;28;20198;-81
2021/06/05 00:38:16;;;;;;;0.37;0.37;;;18.80;99.90;;;;;;5053498;28;20301;-80
2021/06/05 00:40:46;;;;;;;0.57;0.53;;;18.70;99.90;;;;;;5049379;28;20209;-79
2021/06/05 00:43:14;;;;;;;1.03;0.37;;;18.70;99.90;;;;;;5044818;28;20190;-81
2021/06/05 00:45:42;;;;;;;1.50;0.93;;;18.70;99.90;;;;;;5056133;28;20190;-81
2021/06/05 00:48:09;;;;;;;0.70;0.70;;;18.60;99.90;;;;;;5053094;28;20662;-81
2021/06/05 00:50:35;;;;;;;0.40;0.40;;;18.60;99.90;;;;;;5055123;28;20247;-82
2021/06/05 00:53:02;;;;;;;0.27;0.27;;;18.60;99.90;;;;;;5054443;28;20565;-82
2021/06/05 00:55:30;;;;;;;0.37;0.37;;;18.50;99.90;;;;;;5058685;28;20576;-80
2021/06/05 00:57:56;;;;;;;0.70;0.60;;;18.40;99.90;;;;;;5062821;28;20224;-80
2021/06/05 01:00:30;;;;;;;0.43;0.43;;;18.30;99.90;;;;;;5057851;28;20560;-80
2021/06/05 01:03:01;;;;;;;0.50;0.50;;;18.30;99.90;;;;;;5057584;28;20251;-81
2021/06/05 01:05:27;;;;;;;0.27;0.27;;;18.20;99.90;;;;;;5057690;28;20184;-81
2021/06/05 01:07:58;;;;;;;0.60;0.60;;;18.10;99.90;;;;;;5059030;28;20215;-82
2021/06/05 01:10:30;;;;;;;0.40;0.40;;;18.10;99.90;;;;;;5059144;28;20839;-80
2021/06/05 01:13:12;;;;;;;0.27;0.27;;;18.10;99.90;;;;;;5058126;28;20311;-81
2021/06/05 01:15:45;;;;;;;0.83;0.43;;;18.00;99.90;;;;;;5056143;28;20190;-82
2021/06/05 01:18:33;;;;;;;0.43;0.27;;;18.00;99.90;;;;;;5057039;28;20201;-81
2021/06/05 01:21:17;;;;;;;0.33;0.33;;;17.90;99.90;;;;;;5070944;28;20685;-81
2021/06/05 01:24:16;;;;;;;0.40;0.40;;;17.90;99.90;;;;;;5056400;28;20234;-81
2021/06/05 01:26:47;;;;;;;0.27;0.27;;;17.90;99.90;;;;;;5069127;28;20189;-82
2021/06/05 01:29:37;;;;;;;0.33;0.33;;;17.90;99.90;;;;;;5052949;28;20213;-81
2021/06/05 01:32:09;;;;;;;2.40;0.30;;;17.90;99.90;;;;;;5039841;28;20204;-81
2021/06/05 01:34:42;;;;;;;0.10;0.10;;;17.90;99.90;;;;;;5056548;28;20212;-82
2021/06/05 01:37:10;;;;;;;0.30;0.30;;;18.00;99.90;;;;;;5055066;28;20319;-82
2021/06/05 01:39:39;;;;;;;0.13;0.13;;;17.90;99.90;;;;;;5050770;28;20213;-82
2021/06/05 01:42:10;;;;;;;0.20;0.20;;;17.90;99.90;;;;;;5051752;28;20189;-82
2021/06/05 01:44:38;;;;;;;0.20;0.20;;;18.00;99.90;;;;;;5054638;28;20246;-80
2021/06/05 01:47:04;;;;;;;0.20;0.20;;;17.90;99.90;;;;;;5053119;28;20211;-81
2021/06/05 01:49:30;;;;;;;0.27;0.27;;;17.80;99.90;;;;;;5056754;28;20224;-81
2021/06/05 01:52:01;;;;;;;0.10;0.10;;;17.80;99.90;;;;;;5053732;28;20186;-81
2021/06/05 01:54:30;;;;;;;1.27;0.20;;;17.70;99.90;;;;;;5053988;28;20849;-81
2021/06/05 01:57:01;;;;;;;0.20;0.20;;;17.70;99.90;;;;;;5051454;28;20604;-81
2021/06/05 01:59:29;;;;;;;0.20;0.20;;;17.60;99.90;;;;;;5053946;28;20228;-81
2021/06/05 02:01:56;;;;;;;0.10;0.10;;;17.60;99.90;;;;;;5051395;28;20276;-81
2021/06/05 02:04:22;;;;;;;0.60;0.60;;;17.30;99.90;;;;;;5052822;28;20655;-82
2021/06/05 02:06:49;;;;;;;0.30;0.30;;;17.10;99.90;;;;;;5058259;28;20192;-81
2021/06/05 02:09:18;;;;;;;0.40;0.40;;;16.90;99.90;;;;;;5059059;28;20288;-81
2021/06/05 02:11:55;;;;;;;0.20;0.20;;;16.70;99.90;;;;;;5053119;28;20567;-80
2021/06/05 02:14:38;;;;;;;0.30;0.30;;;16.80;99.90;;;;;;5053764;28;20206;-81
2021/06/05 02:17:07;;;;;;;0.20;0.20;;;16.80;99.90;;;;;;5045080;28;20694;-81
2021/06/05 02:19:39;;;;;;;0.10;0.10;;;16.90;99.90;;;;;;5053220;28;20217;-81
2021/06/05 02:22:12;;;;;;;0.20;0.20;;;17.10;99.90;;;;;;5053520;28;20253;-82
2021/06/05 02:24:42;;;;;;;0.30;0.30;;;17.30;99.90;;;;;;5054370;28;20565;-80
2021/06/05 02:27:08;;;;;;;0.30;0.30;;;17.40;99.90;;;;;;5052678;28;20185;-80
2021/06/05 02:29:39;;;;;;;0.23;0.23;;;17.30;99.90;;;;;;5051875;28;20312;-80
2021/06/05 02:32:09;;;;;;;0.30;0.30;;;17.40;99.90;;;;;;5042316;28;20541;-82
2021/06/05 02:34:35;;;;;;;0.30;0.30;;;17.30;99.90;;;;;;5053101;28;20749;-81
2021/06/05 02:37:05;;;;;;;0.20;0.20;;;17.10;99.90;;;;;;5046390;28;20217;-81
2021/06/05 02:39:31;;;;;;;2.90;0.37;;;16.90;99.90;;;;;;5055333;28;20217;-82
2021/06/05 02:41:58;;;;;;;0.13;0.13;;;16.80;99.90;;;;;;5052537;28;20239;-81
2021/06/05 02:44:26;;;;;;;0.20;0.20;;;16.70;99.90;;;;;;5044637;28;20192;-82
2021/06/05 02:46:53;;;;;;;1.10;1.03;;;16.80;99.90;;;;;;5050992;28;20190;-80
2021/06/05 02:49:18;;;;;;;0.20;0.20;;;17.00;99.90;;;;;;5055290;28;20284;-80
2021/06/05 02:51:48;;;;;;;0.10;0.10;;;17.10;99.90;;;;;;5052893;28;20678;-82
2021/06/05 02:54:14;;;;;;;0.20;0.20;;;17.30;99.90;;;;;;5052780;28;20679;-82
2021/06/05 02:56:40;;;;;;;2.33;0.40;;;17.40;99.90;;;;;;5050082;28;20239;-81
2021/06/05 02:59:06;;;;;;;1.60;0.37;;;17.50;99.90;;;;;;5052470;28;20312;-81
2021/06/05 03:01:32;;;;;;;0.33;0.20;;;17.60;99.90;;;;;;5053054;28;20185;-82
2021/06/05 03:04:00;;;;;;;0.37;0.37;;;17.70;99.90;;;;;;5052104;28;20276;-81
2021/06/05 03:06:26;;;;;;;0.20;0.20;;;17.70;99.90;;;;;;5048167;28;20278;-82
2021/06/05 03:08:51;;;;;;;0.27;0.27;;;17.70;99.90;;;;;;5054687;28;20236;-81
2021/06/05 03:11:21;;;;;;;0.20;0.20;;;17.70;99.90;;;;;;5051926;28;20200;-81
2021/06/05 03:13:47;;;;;;;0.30;0.30;;;17.70;99.90;;;;;;5052508;28;20293;-80
2021/06/05 03:16:14;;;;;;;0.33;0.30;;;17.70;99.90;;;;;;5042835;28;20186;-80
2021/06/05 03:18:40;;;;;;;0.10;0.10;;;17.70;99.90;;;;;;5045824;28;20209;-81
2021/06/05 03:21:08;;;;;;;0.20;0.20;;;17.70;99.90;;;;;;5053167;28;20723;-81
2021/06/05 03:23:35;;;;;;;0.37;0.37;;;17.80;99.90;;;;;;5050629;28;20190;-82
2021/06/05 03:26:01;;;;;;;0.17;0.17;;;17.90;99.90;;;;;;5051577;28;20182;-81
2021/06/05 03:28:29;;;;;;;0.43;0.20;;;18.10;99.90;;;;;;5046832;28;20299;-81
2021/06/05 03:30:56;;;;;;;0.57;0.50;;;18.10;99.90;;;;;;5045092;28;20201;-80
2021/06/05 03:33:22;;;;;;;0.20;0.20;;;18.20;99.90;;;;;;5056068;28;20572;-81
2021/06/05 03:35:50;;;;;;;0.50;0.50;;;18.30;99.90;;;;;;5060425;28;20673;-81
2021/06/05 03:38:16;;;;;;;0.73;0.73;;;18.50;99.90;;;;;;5061426;28;20206;-82
2021/06/05 03:40:42;;;;;;;0.47;0.47;;;18.60;99.90;;;;;;5059302;28;20206;-82
2021/06/05 03:43:09;;;;;;;1.27;1.20;;;18.60;99.90;;;;;;5060862;28;20184;-81
2021/06/05 03:45:35;;;;;;;0.20;0.20;;;18.50;99.90;;;;;;5055140;28;20197;-82
2021/06/05 03:48:00;;;;;;;0.73;0.30;;;18.60;99.90;;;;;;5060847;28;20264;-81
2021/06/05 03:50:38;;;;;;;0.27;0.27;;;18.60;99.90;;;;;;5071186;28;20240;-81
2021/06/05 03:53:04;;;;;;;1.07;0.43;;;18.60;99.90;;;;;;5058000;28;20294;-81
2021/06/05 03:55:30;;;;;;;0.23;0.23;;;18.70;99.90;;;;;;5055057;28;20219;-80
2021/06/05 03:58:00;;;;;;;0.20;0.20;;;18.60;99.90;;;;;;5056707;28;20243;-81
2021/06/05 04:00:30;;;;;;;0.40;0.33;;;18.50;99.90;;;;;;5058838;28;20190;-81
2021/06/05 04:02:56;;;;;;;0.27;0.27;;;18.70;99.90;;;;;;5057321;28;20185;-82
2021/06/05 04:05:22;;;;;;;0.43;0.30;;;18.80;99.90;;;;;;5057829;28;20192;-81
2021/06/05 04:07:48;;;;;;;0.43;0.33;;;18.90;99.90;;;;;;5070128;28;20262;-80
2021/06/05 04:10:15;;;;;;;2.47;0.57;;;19.00;99.90;;;;;;5056042;28;20202;-81
2021/06/05 04:12:41;;;;;;;0.23;0.23;;;19.10;99.90;;;;;;5056790;28;20661;-82
2021/06/05 04:15:10;;;;;;;0.20;0.20;;;19.10;99.90;;;;;;5056590;28;20185;-80
2021/06/05 04:17:36;;;;;;;0.50;0.50;;;19.30;99.90;;;;;;5047641;28;20193;-82
2021/06/05 04:20:04;;;;;;;0.30;0.30;;;19.40;99.90;;;;;;5053202;28;20222;-82
2021/06/05 04:22:29;;;;;;;0.40;0.40;;;19.60;99.90;;;;;;5053356;28;20745;-82
2021/06/05 04:24:55;;;;;;;0.30;0.30;;;19.90;99.90;;;;;;5049758;28;20267;-82
2021/06/05 04:27:20;;;;;;;0.10;0.10;;;20.00;99.90;;;;;;5056670;28;20553;-81
2021/06/05 04:29:46;;;;;;;0.67;0.67;;;20.20;99.90;;;;;;5053646;28;20588;-81
2021/06/05 04:32:12;;;;;;;0.30;0.30;;;20.20;99.90;;;;;;5055212;28;20189;-81
2021/06/05 04:34:37;;;;;;;0.30;0.27;;;20.10;99.90;;;;;;5057079;28;20200;-82
2021/06/05 04:37:04;;;;;;;0.10;0.10;;;20.20;99.90;;;;;;5054412;28;20186;-81
2021/06/05 04:39:30;;;;;;;0.20;0.20;;;20.10;99.90;;;;;;5055229;28;20778;-82
2021/06/05 04:41:56;;;;;;;0.43;0.43;;;20.00;99.90;;;;;;5055779;28;20274;-81
2021/06/05 04:44:22;;;;;;;0.13;0.13;;;19.40;99.90;;;;;;5056289;28;20256;-81
2021/06/05 04:46:48;;;;;;;0.10;0.10;;;19.00;99.90;;;;;;5053407;28;20739;-81
2021/06/05 04:49:13;;;;;;;0.20;0.20;;;19.20;99.90;;;;;;5055668;28;20231;-81
2021/06/05 04:51:40;;;;;;;0.20;0.20;;;19.50;99.90;;;;;;5053761;28;20192;-81
2021/06/05 04:54:06;;;;;;;0.20;0.20;;;19.70;99.90;;;;;;5049922;28;20218;-84
2021/06/05 04:56:40;;;;;;;0.30;0.30;;;19.90;99.90;;;;;;5047074;28;20182;-84
2021/06/05 04:59:06;;;;;;;0.50;0.50;;;19.90;99.90;;;;;;5046884;28;20214;-82
2021/06/05 05:01:33;;;;;;;0.77;0.30;;;19.80;99.90;;;;;;5037479;28;20205;-81
2021/06/05 05:03:59;;;;;;;0.40;0.40;;;19.70;99.90;;;;;;5044318;28;20182;-83
2021/06/05 05:06:25;;;;;;;0.30;0.30;;;19.80;99.90;;;;;;5046688;28;20182;-80
2021/06/05 05:08:51;;;;;;;0.20;0.20;;;19.70;99.90;;;;;;5041313;28;20585;-83
2021/06/05 05:11:16;;;;;;;0.23;0.23;;;19.70;99.90;;;;;;5053263;28;20243;-83
2021/06/05 05:13:42;;;;;;;0.30;0.30;;;19.70;99.90;;;;;;5052019;28;20560;-82
2021/06/05 05:16:09;;;;;;;0.23;0.23;;;19.70;99.90;;;;;;5053452;28;20561;-82
2021/06/05 05:18:35;;;;;;;0.43;0.43;;;19.70;99.90;;;;;;5050173;28;20235;-82
2021/06/05 05:21:02;;;;;;;0.40;0.20;;;19.70;99.90;;;;;;5049019;28;20189;-81
2021/06/05 05:23:29;;;;;;;0.43;0.43;;;19.70;99.90;;;;;;5047117;28;20643;-83
2021/06/05 05:25:57;;;;;;;0.33;0.20;;;19.80;99.90;;;;;;5045031;28;20654;-83
2021/06/05 05:28:22;;;;;;;0.30;0.30;;;19.60;99.90;;;;;;5044423;28;20193;-82
2021/06/05 05:30:52;;;;;;;0.37;0.37;;;19.70;99.90;;;;;;5052105;28;20205;-82
2021/06/05 05:33:20;;;;;;;0.40;0.40;;;19.70;99.90;;;;;;5049880;28;20243;-82
2021/06/05 05:35:46;;;;;;;0.27;0.27;;;19.90;99.90;;;;;;5051403;28;20188;-83
2021/06/05 05:38:12;;;;;;;0.20;0.20;;;20.00;99.90;;;;;;5048309;28;20182;-83
2021/06/05 05:40:40;;;;;;;0.47;0.40;;;20.00;99.90;;;;;;5050204;28;20240;-83
2021/06/05 05:43:05;;;;;;;1.13;0.53;;;20.00;99.90;;;;;;5049331;28;20188;-83
2021/06/05 05:45:31;;;;;;;0.40;0.40;;;20.00;99.90;;;;;;5048126;28;20178;-85
2021/06/05 05:48:00;;;;;;;0.20;0.20;;;20.10;99.90;;;;;;5050843;28;20224;-85
2021/06/05 05:50:28;;;;;;;0.10;0.10;;;20.00;99.90;;;;;;5045965;28;20226;-85
2021/06/05 05:52:54;;;;;;;0.20;0.20;;;20.10;99.90;;;;;;5049098;28;20535;-85
2021/06/05 05:55:19;;;;;;;0.30;0.30;;;20.10;99.90;;;;;;5049055;28;20315;-82
2021/06/05 05:57:49;;;;;;;0.33;0.30;;;20.10;99.90;;;;;;5050115;28;20178;-82
2021/06/05 06:00:25;;;;;;;0.50;0.50;;;20.00;99.90;;;;;;5049779;28;20219;-82
2021/06/05 06:02:50;;;;;;;0.40;0.40;;;19.80;99.90;;;;;;5050188;28;20188;-82
2021/06/05 06:05:16;;;;;;;0.43;0.43;;;19.80;99.90;;;;;;5043778;28;20190;-82
2021/06/05 06:07:42;;;;;;;0.50;0.47;;;19.70;99.90;;;;;;5049469;28;20615;-82
2021/06/05 06:10:12;;;;;;;0.57;0.57;;;19.70;99.90;;;;;;5050073;28;20292;-82
2021/06/05 06:12:38;;;;;;;0.40;0.40;;;19.70;99.90;;;;;;5049917;28;20231;-84
2021/06/05 06:15:09;;;;;;;0.43;0.43;;;19.60;99.90;;;;;;5043034;28;20245;-84
2021/06/05 06:17:35;;;;;;;0.13;0.13;;;19.70;99.90;;;;;;5053870;28;20186;-84
2021/06/05 06:20:01;;;;;;;0.30;0.30;;;19.70;99.90;;;;;;5045343;28;20701;-85
2021/06/05 06:22:26;;;;;;;1.17;1.17;;;19.70;99.90;;;;;;5049126;28;20584;-81
2021/06/05 06:24:52;;;;;;;0.33;0.33;;;19.60;99.90;;;;;;5051336;28;20245;-81
2021/06/05 06:27:17;;;;;;;0.80;0.37;;;19.70;99.90;;;;;;5046318;28;20218;-82
2021/06/05 06:29:43;;;;;;;0.40;0.40;;;19.80;99.90;;;;;;5044133;28;20286;-82
2021/06/05 06:32:08;;;;;;;0.47;0.47;;;19.80;99.90;;;;;;5046598;28;20209;-82
2021/06/05 06:34:35;;;;;;;0.37;0.37;;;20.00;99.90;;;;;;5048293;28;20208;-82
2021/06/05 06:37:04;;;;;;;0.30;0.30;;;19.60;99.90;;;;;;5047616;28;20653;-82
2021/06/05 06:39:30;;;;;;;1.40;1.23;;;19.70;99.90;;;;;;5049258;28;20753;-82
2021/06/05 06:41:56;;;;;;;0.30;0.30;;;19.70;99.90;;;;;;5049075;28;20685;-81
2021/06/05 06:44:21;;;;;;;0.30;0.30;;;19.80;99.90;;;;;;5048383;28;20205;-82
2021/06/05 06:46:49;;;;;;;0.40;0.40;;;20.10;99.90;;;;;;5049390;28;20195;-82
2021/06/05 06:49:17;;;;;;;0.30;0.30;;;20.10;99.90;;;;;;5050338;28;20232;-82
2021/06/05 06:51:43;;;;;;;0.20;0.20;;;20.20;99.90;;;;;;5048402;28;20189;-82
2021/06/05 06:54:10;;;;;;;0.27;0.27;;;20.30;99.90;;;;;;5048901;28;20193;-82
2021/06/05 06:56:37;;;;;;;0.30;0.30;;;20.40;99.90;;;;;;5045951;28;20276;-82
2021/06/05 06:59:05;;;;;;;0.53;0.20;;;20.60;99.90;;;;;;5053642;28;20214;-82
2021/06/05 07:01:31;;;;;;;0.40;0.40;;;20.70;99.90;;;;;;5043684;28;20191;-82
2021/06/05 07:03:56;;;;;;;0.30;0.30;;;20.80;99.90;;;;;;5050735;28;20257;-82
2021/06/05 07:06:25;;;;;;;0.20;0.20;;;21.10;99.90;;;;;;5050750;28;20272;-82
2021/06/05 07:08:52;;;;;;;0.10;0.10;;;21.30;99.90;;;;;;5052966;28;20216;-82
2021/06/05 07:11:22;;;;;;;0.40;0.40;;;21.50;99.90;;;;;;5054041;28;20181;-82
2021/06/05 07:13:48;;;;;;;0.37;0.20;;;21.60;99.90;;;;;;5054886;28;20215;-82
2021/06/05 07:16:14;;;;;;;0.37;0.37;;;21.70;99.90;;;;;;5051779;28;20709;-82
2021/06/05 07:18:40;;;;;;;0.30;0.30;;;21.90;99.90;;;;;;5044782;28;20588;-82
2021/06/05 07:21:09;;;;;;;0.30;0.30;;;22.10;99.90;;;;;;5055872;28;20181;-82
2021/06/05 07:23:37;;;;;;;0.23;0.23;;;22.20;99.90;;;;;;5055439;28;20177;-82
2021/06/05 07:26:09;;;;;;;0.63;0.63;;;22.30;99.90;;;;;;5053958;28;20263;-81
2021/06/05 07:28:38;;;;;;;1.30;0.30;;;22.30;99.90;;;;;;5058824;28;21016;-82
2021/06/05 07:31:07;;;;;;;0.40;0.40;;;22.30;99.90;;;;;;5059630;28;20591;-82
2021/06/05 07:33:32;;;;;;;0.40;0.40;;;22.50;99.90;;;;;;5056557;28;20188;-82
2021/06/05 07:35:58;;;;;;;0.40;0.40;;;22.70;99.90;;;;;;5065303;28;20181;-82
2021/06/05 07:38:26;;;;;;;0.10;0.10;;;22.80;99.90;;;;;;5054686;28;20201;-82
2021/06/05 07:40:53;;;;;;;0.57;0.40;;;22.90;99.90;;;;;;5050422;28;20193;-81
2021/06/05 07:43:21;;;;;;;0.53;0.53;;;23.00;99.90;;;;;;5043758;28;20181;-83
2021/06/05 07:45:47;;;;;;;0.30;0.30;;;23.10;99.90;;;;;;5048404;28;20174;-82
2021/06/05 07:48:13;;;;;;;0.40;0.40;;;23.30;99.90;;;;;;5050151;28;20273;-81
2021/06/05 07:50:40;;;;;;;0.30;0.30;;;23.30;99.90;;;;;;5053307;28;20217;-81
2021/06/05 07:53:06;;;;;;;0.40;0.40;;;23.10;99.90;;;;;;5054331;28;20209;-82
2021/06/05 07:55:32;;;;;;;1.03;0.40;;;23.00;99.90;;;;;;5060183;28;20626;-82
2021/06/05 07:57:57;;;;;;;0.17;0.17;;;23.10;99.90;;;;;;5054848;28;20181;-81
2021/06/05 08:00:28;;;;;;;0.50;0.50;;;23.40;99.90;;;;;;5055565;28;20245;-83
2021/06/05 08:02:55;;;;;;;0.40;0.40;;;23.80;99.90;;;;;;5053665;28;20186;-81
2021/06/05 08:05:21;;;;;;;0.50;0.50;;;23.90;99.90;;;;;;5055122;28;20182;-82
2021/06/05 08:07:47;;;;;;;0.27;0.27;;;23.90;99.90;;;;;;5044476;28;20185;-82
2021/06/05 08:10:14;;;;;;;0.27;0.27;;;24.00;99.90;;;;;;5049341;28;20206;-82
2021/06/05 08:12:40;;;;;;;1.03;0.63;;;24.20;99.90;;;;;;5052666;28;20597;-82
2021/06/05 08:15:09;;;;;;;0.30;0.30;;;24.60;99.90;;;;;;5055051;28;20186;-81
2021/06/05 08:17:35;;;;;;;0.13;0.13;;;24.50;99.90;;;;;;5066170;28;20567;-82
2021/06/05 08:20:02;;;;;;;0.30;0.30;;;25.10;99.90;;;;;;5050278;28;20209;-82
2021/06/05 08:22:28;;;;;;;0.63;0.30;;;25.60;99.90;;;;;;5053285;28;20189;-81
2021/06/05 08:24:55;;;;;;;0.47;0.30;;;25.40;99.90;;;;;;5050207;28;20562;-82
2021/06/05 08:27:21;;;;;;;0.47;0.40;;;26.10;99.90;;;;;;5050849;28;20185;-82
2021/06/05 08:29:47;;;;;;;0.30;0.30;;;26.50;99.90;;;;;;5053787;28;20216;-82
2021/06/05 08:32:13;;;;;;;0.40;0.40;;;26.50;99.90;;;;;;5053508;28;20285;-82
2021/06/05 08:34:39;;;;;;;0.30;0.30;;;26.60;99.90;;;;;;5054303;28;20255;-82
2021/06/05 08:37:04;;;;;;;0.33;0.30;;;26.60;99.90;;;;;;5055375;28;20670;-81
2021/06/05 08:39:30;;;;;;;0.40;0.40;;;26.20;99.90;;;;;;5055141;28;20235;-81
2021/06/05 08:41:59;;;;;;;0.30;0.30;;;26.50;99.90;;;;;;5052626;28;20192;-83
2021/06/05 08:44:25;;;;;;;0.47;0.33;;;26.60;99.90;;;;;;5052568;28;20221;-83
2021/06/05 08:47:01;;;;;;;0.47;0.47;;;26.60;99.90;;;;;;5052870;28;20201;-82
2021/06/05 08:49:30;;;;;;;0.40;0.40;;;26.40;99.90;;;;;;5055077;28;20233;-81
2021/06/05 08:52:25;;;;;;;0.40;0.40;;;26.20;99.90;;;;;;5049935;28;20192;-83
2021/06/05 08:54:57;;;;;;;0.47;0.47;;;26.20;99.90;;;;;;5053297;28;20312;-82
2021/06/05 08:57:47;;;;;;;0.40;0.40;;;25.40;99.90;;;;;;5043420;28;20197;-83
2021/06/05 09:00:40;;;;;;;0.60;0.60;;;25.70;99.90;;;;;;5048800;28;20206;-80
2021/06/05 09:03:14;;;;;;;0.30;0.30;;;25.70;99.90;;;;;;5050894;28;20183;-79
2021/06/05 09:05:53;;;;;;;0.77;0.77;;;26.00;99.90;;;;;;5047423;28;20670;-79
2021/06/05 09:08:20;;;;;;;0.50;0.50;;;26.20;99.90;;;;;;5055436;28;20238;-79
2021/06/05 09:10:47;;;;;;;0.30;0.30;;;26.30;99.90;;;;;;5055908;28;20251;-79
2021/06/05 09:13:13;;;;;;;0.30;0.30;;;26.50;99.90;;;;;;5054089;28;20735;-79
2021/06/05 09:15:39;;;;;;;0.50;0.50;;;26.50;99.90;;;;;;5065877;28;20540;-79
2021/06/05 09:18:08;;;;;;;0.30;0.30;;;26.40;99.90;;;;;;5047978;28;20173;-81
2021/06/05 09:21:01;;;;;;;0.37;0.37;;;26.40;99.90;;;;;;5049639;28;20228;-82
2021/06/05 09:23:37;;;;;;;0.87;0.60;;;26.40;99.90;;;;;;5049003;28;20200;-81
2021/06/05 09:26:23;;;;;;;0.20;0.20;;;26.10;99.90;;;;;;5055526;28;20531;-81
2021/06/05 09:29:07;;;;;;;0.40;0.40;;;26.30;99.90;;;;;;5054819;28;20185;-81
2021/06/05 09:31:33;;;;;;;0.90;0.73;;;26.30;99.90;;;;;;5057034;28;20282;-81
2021/06/05 09:33:59;;;;;;;0.77;0.77;;;26.60;99.90;;;;;;5050924;28;20191;-80
2021/06/05 09:36:34;;;;;;;1.17;0.50;;;26.40;99.90;;;;;;5051841;28;20725;-81
2021/06/05 09:39:05;;;;;;;0.53;0.37;;;26.60;99.90;;;;;;5052005;28;20213;-81
2021/06/05 09:41:37;;;;;;;0.23;0.20;;;26.80;99.90;;;;;;5054740;28;20196;-81
2021/06/05 09:44:20;;;;;;;0.30;0.30;;;26.70;99.90;;;;;;5040412;28;20607;-82
2021/06/05 09:47:01;;;;;;;0.27;0.27;;;27.10;99.90;;;;;;5046735;28;20190;-81
2021/06/05 09:49:30;;;;;;;0.47;0.47;;;27.20;99.90;;;;;;5046888;28;20292;-80
2021/06/05 09:52:05;;;;;;;0.30;0.30;;;27.20;99.90;;;;;;5050107;28;20185;-79
2021/06/05 09:54:37;;;;;;;0.40;0.40;;;27.10;99.90;;;;;;5053395;28;20663;-81
2021/06/05 09:57:31;;;;;;;0.50;0.50;;;27.00;99.90;;;;;;5055084;28;20190;-81
2021/06/05 10:00:11;;;;;;;1.33;0.30;;;26.50;99.90;;;;;;5052368;28;20225;-81
2021/06/05 10:02:39;;;;;;;0.40;0.40;;;26.40;99.90;;;;;;5044892;28;20182;-80
2021/06/05 10:05:17;;;;;;;0.40;0.40;;;26.20;99.90;;;;;;5048928;28;20173;-80
2021/06/05 10:07:43;;;;;;;0.33;0.33;;;26.20;99.90;;;;;;5042319;28;20181;-81
2021/06/05 10:10:32;;;;;;;0.53;0.53;;;26.00;99.90;;;;;;5047846;28;20708;-83
2021/06/05 10:13:00;;;;;;;0.20;0.20;;;25.90;99.90;;;;;;5047301;28;20195;-85
2021/06/05 10:15:35;;;;;;;0.63;0.20;;;25.90;99.90;;;;;;5050818;28;20700;-84
2021/06/05 10:18:04;;;;;;;0.17;0.17;;;26.10;99.90;;;;;;5035397;28;20669;-83
2021/06/05 10:20:46;;;;;;;0.40;0.40;;;26.20;99.90;;;;;;5047504;28;20217;-85
2021/06/05 10:23:16;;;;;;;0.30;0.30;;;26.30;99.90;;;;;;5050229;28;20181;-84
2021/06/05 10:25:47;;;;;;;0.40;0.40;;;26.30;99.90;;;;;;5048896;28;20282;-84
2021/06/05 10:28:16;;;;;;;0.87;0.40;;;26.40;99.90;;;;;;5049756;28;20191;-85
2021/06/05 10:30:58;;;;;;;3.50;0.23;;;26.30;99.90;;;;;;5047457;28;20197;-84
2021/06/05 10:33:41;;;;;;;0.23;0.23;;;26.00;99.90;;;;;;5048649;28;20185;-85
2021/06/05 10:36:24;;;;;;;0.30;0.30;;;25.90;99.90;;;;;;5047274;28;20230;-84
2021/06/05 10:38:50;;;;;;;0.40;0.40;;;25.80;99.90;;;;;;5048014;28;20225;-84
2021/06/05 10:41:24;;;;;;;0.50;0.50;;;25.70;99.90;;;;;;5049431;28;20173;-84
2021/06/05 10:43:50;;;;;;;0.70;0.70;;;25.80;99.90;;;;;;5049806;28;20180;-84
2021/06/05 10:46:37;;;;;;;0.40;0.40;;;25.70;99.90;;;;;;5041545;28;20183;-84
2021/06/05 10:49:21;;;;;;;0.40;0.40;;;25.60;99.90;;;;;;5040286;28;20197;-85
2021/06/05 10:51:50;;;;;;;0.30;0.30;;;25.50;99.90;;;;;;5042528;28;20322;-83
2021/06/05 10:54:23;;;;;;;0.40;0.40;;;25.40;99.90;;;;;;5047190;28;20725;-84
2021/06/05 10:57:03;;;;;;;1.70;0.40;;;25.50;99.90;;;;;;5048268;28;20189;-85
2021/06/05 10:59:37;;;;;;;0.53;0.53;;;25.50;99.90;;;;;;5063964;28;20205;-84
2021/06/05 11:02:03;;;;;;;0.40;0.40;;;25.50;99.90;;;;;;5040582;28;20205;-85
2021/06/05 11:04:31;;;;;;;0.77;0.73;;;25.30;99.90;;;;;;5051718;28;20209;-84
2021/06/05 11:07:25;;;;;;;1.17;0.73;;;25.30;99.90;;;;;;5043378;28;20230;-84
2021/06/05 11:09:53;;;;;;;0.40;0.40;;;25.30;99.90;;;;;;5042623;28;20232;-84
2021/06/05 11:12:19;;;;;;;0.30;0.30;;;25.20;99.90;;;;;;5043215;28;21033;-84
2021/06/05 11:14:47;;;;;;;0.20;0.20;;;25.30;99.90;;;;;;5044970;28;20193;-85
2021/06/05 11:17:33;;;;;;;0.30;0.30;;;25.40;99.90;;;;;;5049556;28;20197;-84
2021/06/05 11:20:19;;;;;;;0.40;0.40;;;25.50;99.90;;;;;;5040665;28;20212;-84
2021/06/05 11:22:48;;;;;;;0.50;0.50;;;25.70;99.90;;;;;;5042134;28;20182;-84
2021/06/05 11:25:16;;;;;;;0.70;0.67;;;26.00;99.90;;;;;;5043122;28;20827;-84
2021/06/05 11:27:42;;;;;;;0.50;0.50;;;26.10;99.90;;;;;;5048481;28;20177;-83
2021/06/05 11:30:27;;;;;;;0.40;0.40;;;26.40;99.90;;;;;;5049614;28;20566;-84
2021/06/05 11:33:10;;;;;;;0.20;0.20;;;26.30;99.90;;;;;;5048307;28;20572;-84
2021/06/05 11:35:57;;;;;;;0.27;0.27;;;26.60;99.90;;;;;;5048312;28;20185;-85
2021/06/05 11:38:23;;;;;;;0.27;0.27;;;26.80;99.90;;;;;;5048336;28;20527;-84
2021/06/05 11:40:59;;;;;;;1.33;1.00;;;27.10;99.90;;;;;;5039999;28;20218;-84
2021/06/05 11:43:28;;;;;;;0.60;0.60;;;27.10;99.90;;;;;;5048602;28;20601;-84
2021/06/05 11:46:16;;;;;;;0.20;0.20;;;27.20;99.90;;;;;;5035916;28;20228;-85
2021/06/05 11:48:47;;;;;;;0.23;0.23;;;27.50;99.90;;;;;;5035805;28;20197;-84
2021/06/05 11:51:27;;;;;;;0.67;0.40;;;27.40;99.90;;;;;;5037681;28;20273;-85
2021/06/05 11:53:56;;;;;;;0.50;0.50;;;27.20;99.90;;;;;;5048333;28;20194;-86
2021/06/05 11:56:43;;;;;;;0.57;0.57;;;27.30;99.90;;;;;;5046770;28;20182;-85
2021/06/05 11:59:39;;;;;;;2.63;0.63;;;27.50;99.90;;;;;;5052355;28;20217;-87
2021/06/05 12:02:23;;;;;;;0.67;0.30;;;27.50;99.90;;;;;;5044987;28;20663;-88
2021/06/05 12:04:57;;;;;;;0.40;0.40;;;27.70;99.90;;;;;;5051936;28;20639;-87
2021/06/05 12:07:22;;;;;;;0.40;0.40;;;28.00;99.90;;;;;;5054571;28;20206;-87
2021/06/05 12:09:54;;;;;;;0.30;0.30;;;27.20;99.90;;;;;;5054599;28;20611;-87
2021/06/05 12:12:22;;;;;;;2.73;0.30;;;27.50;99.90;;;;;;5048455;28;20277;-88
2021/06/05 12:14:54;;;;;;;0.40;0.40;;;27.80;99.90;;;;;;5053519;28;20607;-88
2021/06/05 12:17:36;;;;;;;0.20;0.20;;;28.00;99.90;;;;;;5054565;28;20217;-85
2021/06/05 12:20:11;;;;;;;0.30;0.30;;;28.10;99.90;;;;;;5053943;28;20217;-85
2021/06/05 12:22:38;;;;;;;0.40;0.40;;;28.10;99.90;;;;;;5052846;28;20181;-86
2021/06/05 12:25:06;;;;;;;0.27;0.27;;;28.20;99.90;;;;;;5046520;28;20270;-86
2021/06/05 12:27:39;;;;;;;0.87;0.87;;;28.10;99.90;;;;;;5052963;28;20231;-85
2021/06/05 12:30:20;;;;;;;0.40;0.40;;;28.20;99.90;;;;;;5055187;28;20209;-85
2021/06/05 12:33:04;;;;;;;0.50;0.50;;;28.20;99.90;;;;;;5040853;28;20213;-86
2021/06/05 12:35:40;;;;;;;0.27;0.27;;;28.50;99.90;;;;;;5053884;28;20611;-85
2021/06/05 12:38:09;;;;;;;0.63;0.30;;;28.80;99.90;;;;;;5046029;28;20182;-85
2021/06/05 12:44:19;;;;;;;3.33;0.50;;;28.70;99.90;;;;;;5054192;28;20185;-85
2021/06/05 12:46:45;;;;;;;0.70;0.70;;;29.00;99.90;;;;;;5048984;28;20197;-85
2021/06/05 12:49:17;;;;;;;3.08;0.63;;;28.70;99.90;;;;;;5052721;28;20608;-85
2021/06/05 12:51:54;;;;;;;0.30;0.30;;;28.40;99.90;;;;;;5050821;28;20178;-85
2021/06/05 12:54:42;;;;;;;0.60;0.60;;;28.10;99.90;;;;;;5044083;28;20201;-87
2021/06/05 12:57:28;;;;;;;0.30;0.30;;;27.70;99.90;;;;;;5045971;28;20194;-85
2021/06/05 12:59:54;;;;;;;0.40;0.33;;;27.40;99.90;;;;;;5051444;28;20209;-85
2021/06/05 13:02:34;;;;;;;0.43;0.43;;;27.00;99.90;;;;;;5052545;28;20568;-85
2021/06/05 13:05:17;;;;;;;0.20;0.20;;;26.70;99.90;;;;;;5051443;28;20662;-87
2021/06/05 13:07:45;;;;;;;0.20;0.20;;;26.30;99.90;;;;;;5047779;28;20193;-85